Sedona, AZ

8:11 AM MST on May 23, 2017 (GMT -0700)
Sedona

Weather History for KSEZ - March, 2013

Change the Weather History Date:

Tuesday, March 12, 2013

  Actual Average Record
Temperature  
Mean Temperature 58 °F -  
Max Temperature 73 °F 62 °F 77 °F (2017)
Min Temperature 44 °F 34 °F 37 °F (2016)
Degree Days  
Heating Degree Days 6    
Growing Degree Days 8 (Base 50)    
Moisture  
Dew Point 27 °F    
Average Humidity 30    
Maximum Humidity 46    
Minimum Humidity 20    
Precipitation  
Precipitation 0.00 in - - ()
Sea Level Pressure  
Sea Level Pressure 30.19 in    
Wind  
Wind Speed 12 mph (ENE)    
Max Wind Speed 16 mph    
Max Gust Speed 22 mph    
Visibility 10 miles    
Events      
Averages and records for this station are not official NWS values.
T = Trace of Precipitation, MM = Missing Value Source: NWS Daily Summary

Daily Weather History Graph

Daily Weather History Graph

Search for Another Location

Airport or City:

Trip Planner

Search our weather history database for the weather conditions in past years. The results will help you decide how hot, cold, wet, or windy it might be!

Date:

Astronomy

Mar. 12, 2013 Rise Set
Actual Time 6:41 AM MST 6:32 PM MST
Civil Twilight 6:16 AM MST 6:57 PM MST
Nautical Twilight 5:47 AM MST 7:27 PM MST
Astronomical Twilight 5:17 AM MST 7:56 PM MST
Moon 6:53 AM MST (3/12) 7:46 PM MST (3/12)
Length of Visible Light 12h 41m
Length of Day
11h 51m
New Moon, 1% of the Moon is Illuminated
Mar 12
New Moon
Mar 19
First Quarter
Mar 27
Full
Apr 2
Last Quarter
Apr 10
New

Hourly Weather History & Observations

Time (MST) Temp. Windchill Dew Point Humidity Pressure Visibility Wind Dir Wind Speed Gust Speed Precip Events Conditions
12:15 AM 50.0 °F - 28.4 °F 43% 30.16 in 10.0 mi NE 12.7 mph - N/A   Clear
12:55 AM 50.0 °F - 26.6 °F 40% 30.15 in 10.0 mi NE 13.8 mph - N/A   Clear
1:15 AM 46.4 °F 39.8 °F 26.6 °F 46% 30.15 in 10.0 mi NE 16.1 mph - N/A   Clear
1:55 AM 48.2 °F - 23.0 °F 37% 30.16 in 10.0 mi NE 13.8 mph - N/A   Clear
2:15 AM 48.2 °F - 23.0 °F 37% 30.15 in 10.0 mi NE 11.5 mph - N/A   Clear
2:35 AM 50.0 °F - 21.2 °F 32% 30.15 in 10.0 mi NE 12.7 mph - N/A   Clear
2:55 AM 48.2 °F - 23.0 °F 37% 30.15 in 10.0 mi NE 11.5 mph - N/A   Clear
3:15 AM 50.0 °F - 21.2 °F 32% 30.15 in 10.0 mi ENE 10.4 mph - N/A   Clear
3:55 AM 50.0 °F - 21.2 °F 32% 30.15 in 10.0 mi NE 9.2 mph - N/A   Clear
4:15 AM 46.4 °F 41.1 °F 23.0 °F 40% 30.15 in 10.0 mi NE 11.5 mph - N/A   Clear
4:35 AM 46.4 °F 40.4 °F 23.0 °F 40% 30.15 in 10.0 mi NE 13.8 mph - N/A   Clear
4:55 AM 46.4 °F 41.1 °F 23.0 °F 40% 30.15 in 10.0 mi ENE 11.5 mph - N/A   Clear
5:15 AM 44.6 °F 38.1 °F 23.0 °F 43% 30.16 in 10.0 mi NE 13.8 mph - N/A   Clear
5:35 AM 46.4 °F 39.8 °F 23.0 °F 40% 30.16 in 10.0 mi NE 16.1 mph - N/A   Clear
5:55 AM 46.4 °F 41.1 °F 23.0 °F 40% 30.16 in 10.0 mi NE 11.5 mph - N/A   Clear
6:15 AM 48.2 °F - 21.2 °F 34% 30.17 in 10.0 mi NE 12.7 mph - N/A   Clear
6:35 AM 50.0 °F - 21.2 °F 32% 30.18 in 10.0 mi NE 13.8 mph - N/A   Clear
6:55 AM 51.8 °F - 21.2 °F 30% 30.18 in 10.0 mi NE 13.8 mph - N/A   Clear
7:15 AM 51.8 °F - 23.0 °F 33% 30.19 in 10.0 mi ENE 12.7 mph - N/A   Clear
7:35 AM 53.6 °F - 24.8 °F 33% 30.20 in 10.0 mi ENE 9.2 mph 18.4 mph N/A   Clear
7:55 AM 53.6 °F - 26.6 °F 35% 30.21 in 10.0 mi East 10.4 mph 19.6 mph N/A   Clear
8:15 AM 55.4 °F - 28.4 °F 36% 30.21 in 10.0 mi ENE 9.2 mph - N/A   Clear
8:35 AM 57.2 °F - 28.4 °F 33% 30.21 in 10.0 mi East 6.9 mph - N/A   Clear
8:55 AM 59.0 °F - 30.2 °F 34% 30.22 in 10.0 mi East 9.2 mph - N/A   Clear
9:15 AM 60.8 °F - 30.2 °F 31% 30.22 in 10.0 mi East 12.7 mph 17.3 mph N/A   Clear
9:35 AM 60.8 °F - 30.2 °F 31% 30.22 in 10.0 mi East 15.0 mph 19.6 mph N/A   Clear
9:55 AM 62.6 °F - 30.2 °F 30% 30.22 in 10.0 mi East 15.0 mph 19.6 mph N/A   Clear
10:15 AM 62.6 °F - 30.2 °F 30% 30.22 in 10.0 mi East 12.7 mph 18.4 mph N/A   Clear
10:35 AM 64.4 °F - 30.2 °F 28% 30.22 in 10.0 mi East 13.8 mph 17.3 mph N/A   Clear
10:55 AM 64.4 °F - 30.2 °F 28% 30.22 in 10.0 mi East 15.0 mph 19.6 mph N/A   Clear
11:15 AM 66.2 °F - 30.2 °F 26% 30.22 in 10.0 mi ENE 10.4 mph 18.4 mph N/A   Clear
11:35 AM 66.2 °F - 30.2 °F 26% 30.22 in 10.0 mi ENE 9.2 mph 17.3 mph N/A   Clear
11:55 AM 68.0 °F - 30.2 °F 24% 30.21 in 10.0 mi ENE 8.1 mph 16.1 mph N/A   Clear
12:15 PM 68.0 °F - 32.0 °F 26% 30.21 in 10.0 mi East 9.2 mph - N/A   Clear
12:35 PM 69.8 °F - 32.0 °F 25% 30.21 in 10.0 mi East 8.1 mph - N/A   Clear
12:55 PM 69.8 °F - 30.2 °F 23% 30.20 in 10.0 mi NE 5.8 mph - N/A   Clear
1:15 PM 69.8 °F - 30.2 °F 23% 30.19 in 10.0 mi East 5.8 mph - N/A   Clear
1:35 PM 69.8 °F - 30.2 °F 23% 30.18 in 10.0 mi ENE 8.1 mph 18.4 mph N/A   Clear
1:55 PM 71.6 °F - 32.0 °F 23% 30.17 in 10.0 mi ESE 5.8 mph - N/A   Clear
2:15 PM 73.4 °F - 32.0 °F 22% 30.17 in 10.0 mi ESE 9.2 mph - N/A   Clear
2:35 PM 73.4 °F - 32.0 °F 22% 30.17 in 10.0 mi SE 9.2 mph - N/A   Clear
2:55 PM 73.4 °F - 32.0 °F 22% 30.16 in 10.0 mi SE 9.2 mph - N/A   Clear
3:15 PM 73.4 °F - 30.2 °F 20% 30.16 in 10.0 mi SE 10.4 mph - N/A   Clear
3:35 PM 73.4 °F - 30.2 °F 20% 30.16 in 10.0 mi SE 9.2 mph - N/A   Clear
3:55 PM 71.6 °F - 28.4 °F 20% 30.15 in 10.0 mi SE 8.1 mph - N/A   Clear
4:15 PM 71.6 °F - 28.4 °F 20% 30.16 in 10.0 mi ENE 6.9 mph - N/A   Clear
4:55 PM 69.8 °F - 26.6 °F 20% 30.16 in 10.0 mi NE 3.5 mph - N/A   Clear
5:15 PM 69.8 °F - 26.6 °F 20% 30.16 in 10.0 mi Calm Calm - N/A   Clear
5:35 PM 69.8 °F - 28.4 °F 21% 30.16 in 10.0 mi Calm Calm - N/A   Clear
5:55 PM 68.0 °F - 28.4 °F 23% 30.16 in 10.0 mi ESE 4.6 mph - N/A   Clear
6:15 PM 66.2 °F - 28.4 °F 24% 30.16 in 10.0 mi East 4.6 mph - N/A   Clear
6:55 PM 64.4 °F - 28.4 °F 26% 30.17 in 10.0 mi NE 8.1 mph - N/A   Clear
7:15 PM 64.4 °F - 28.4 °F 26% 30.18 in 10.0 mi ENE 11.5 mph - N/A   Clear
7:35 PM 62.6 °F - 28.4 °F 27% 30.19 in 10.0 mi ENE 10.4 mph - N/A   Clear
7:55 PM 60.8 °F - 28.4 °F 29% 30.19 in 10.0 mi ENE 11.5 mph - N/A   Clear
8:15 PM 60.8 °F - 26.6 °F 27% 30.19 in 10.0 mi ENE 12.7 mph 18.4 mph N/A   Clear
8:35 PM 60.8 °F - 26.6 °F 27% 30.21 in 10.0 mi ENE 15.0 mph - N/A   Clear
8:55 PM 60.8 °F - 26.6 °F 27% 30.21 in 10.0 mi NE 15.0 mph 20.7 mph N/A   Clear
9:15 PM 59.0 °F - 26.6 °F 29% 30.22 in 10.0 mi NE 15.0 mph 20.7 mph N/A   Clear
9:35 PM 59.0 °F - 26.6 °F 29% 30.22 in 10.0 mi NE 16.1 mph 21.9 mph N/A   Clear
9:55 PM 59.0 °F - 26.6 °F 29% 30.22 in 10.0 mi NE 16.1 mph 21.9 mph N/A   Clear
10:15 PM 59.0 °F - 24.8 °F 27% 30.23 in 10.0 mi NE 13.8 mph - N/A   Clear
10:35 PM 59.0 °F - 24.8 °F 27% 30.24 in 10.0 mi ENE 12.7 mph - N/A   Clear
10:55 PM 57.2 °F - 24.8 °F 29% 30.25 in 10.0 mi ENE 11.5 mph - N/A   Clear
11:15 PM 55.4 °F - 26.6 °F 33% 30.25 in 10.0 mi ENE 11.5 mph - N/A   Clear
11:35 PM 53.6 °F - 26.6 °F 35% 30.25 in 10.0 mi NE 13.8 mph - N/A   Clear
11:55 PM 55.4 °F - 26.6 °F 33% 30.25 in 10.0 mi ENE 12.7 mph 18.4 mph N/A   Clear